Абакан

СКИДКИ НА СМАРТФОНЫ!

Карта отелей и гостиниц, располагающихся рядом с аэропортом Абакан :

Абакан Республика Хакасия 53° 44' 27.8988" N, 91° 23' 9.78" E
Код аэродрома ИКАО
UNAA
Код аэродрома RU
УНАА
Координаты
N53.74108° E091.38605°
Превышение над уровнем моря
253
Основная полоса
02R/20L
Курс магнитный
020,7/200,7
Длина основной ВПП
2500
Ширина основной ВПП
45
Покрытие основной ВПП
Твёрдое (железобетон)
Освещение ВПП
Постоянное
Тип: 
Аэродром
Класс аэродрома: 
Международный
Принадлежность: 
ГА
Статус: 
Действующий
Сайт: 
www.abakan.aero
E-mail аэродрома: 
info@abakan.aero
Страна: 
Россия
Регион: 
Республика Хакасия
Дополнительная информация: 
Оператор: ОАО "Аэропорт Абакан". PCN: 98/F/В/W/T. Военный индекс: XNAA / ЬНАА.
Схемы аэропортов: 
Погода: 

Авиационная погода в Абакане

Регион: 
Погода METAR: 
UNAA 190400Z 03003MPS CAVOK 15/08 Q1011 R02/CLRD65 NOSIG RMK QFE736
Время наблюдения
2022-08-19T04:00:00Z
Температура C
15.0
Точка росы
8.0
Направление ветра
30
Скорость ветра (узлы)
6
Метео видимость
6.21
Облачность
CAVOK
Нижняя граница облачности (футы)
Явления погоды
Условия полета
VFR
Аэропорт подробнее: 
Прогноз TAF: 

Скидки на навигаторы!

Найти трансфер

С помощью этой формы Вы можете найти трансфер из аэропорта Абакан в город, аэропорт или вокзал:

Погода в аэропортах:

Авиационная погода в аэропорту Сокол

Регион: 
Погода METAR: 
UHMM 190400Z 10009G14MPS 9999 -SHRA OVC025CB 14/11 Q1004 R10/70D NOSIG RMK MT OBSC QFE738 R28/12008MPS
Время наблюдения
2022-08-19T04:00:00Z
Температура C
14.0
Точка росы
11.0
Направление ветра
100
Скорость ветра (узлы)
17
Метео видимость
6.21
Облачность
OVC
Нижняя граница облачности (футы)
2500
Явления погоды
-SHRA
Условия полета
MVFR
Аэропорт подробнее: 
OVC – сплошная облачность;
-SHRA - слабый ливневой дождь;

Авиационная погода в Богашево

Регион: 
Погода METAR: 
UNTT 190400Z 24003MPS 0750 0650W R21/0750U FG VV001 11/11 Q1011 R21/290050 NOSIG RMK QBB050 QFE743
Время наблюдения
2022-08-19T04:00:00Z
Температура C
11.0
Точка росы
11.0
Направление ветра
240
Скорость ветра (узлы)
6
Метео видимость
0.47
Облачность
OVX
Нижняя граница облачности (футы)
0
Явления погоды
FG
Условия полета
LIFR
Аэропорт подробнее: 
FG – туман (небо не видно, температура воздуха выше нуля или ноль);

Авиационная погода в Миккели

Регион: 
Погода METAR: 
EFMI 190420Z AUTO 12003KT 9999 VCSH //////CB 20/19 Q1020
Время наблюдения
2022-08-19T04:20:00Z
Температура C
20.0
Точка росы
19.0
Направление ветра
120
Скорость ветра (узлы)
3
Метео видимость
6.21
Облачность
Нижняя граница облачности (футы)
Явления погоды
VCSH
Условия полета

Авиационная погода в Куусамо

Регион: 
Погода METAR: 
EFKS 190420Z AUTO 10004KT 060V140 1900 BR OVC001 16/16 Q1022
Время наблюдения
2022-08-19T04:20:00Z
Температура C
16.0
Точка росы
16.0
Направление ветра
100
Скорость ветра (узлы)
4
Метео видимость
1.18
Облачность
OVC
Нижняя граница облачности (футы)
100
Явления погоды
BR
Условия полета
LIFR
OVC – сплошная облачность;
BR – дымка (видимость от 1 до 9 км);